sensor_id;sensor_type;location;lat;lon;timestamp;P1;durP1;ratioP1;P2;durP2;ratioP2
44850;SDS011;30583;48.714;9.386;2022-11-20T00:01:09;9.77;;;4.40;;
44850;SDS011;30583;48.714;9.386;2022-11-20T00:03:36;7.65;;;3.85;;
44850;SDS011;30583;48.714;9.386;2022-11-20T00:06:03;6.80;;;3.92;;
44850;SDS011;30583;48.714;9.386;2022-11-20T00:08:30;5.35;;;3.85;;
44850;SDS011;30583;48.714;9.386;2022-11-20T00:10:55;6.15;;;3.97;;
44850;SDS011;30583;48.714;9.386;2022-11-20T00:13:21;8.68;;;3.90;;
44850;SDS011;30583;48.714;9.386;2022-11-20T00:15:47;7.25;;;4.15;;
44850;SDS011;30583;48.714;9.386;2022-11-20T00:18:12;5.53;;;3.80;;
44850;SDS011;30583;48.714;9.386;2022-11-20T00:20:38;5.97;;;3.60;;
44850;SDS011;30583;48.714;9.386;2022-11-20T00:23:03;7.78;;;3.88;;
44850;SDS011;30583;48.714;9.386;2022-11-20T00:25:30;6.07;;;3.78;;
44850;SDS011;30583;48.714;9.386;2022-11-20T00:27:56;6.22;;;4.43;;
44850;SDS011;30583;48.714;9.386;2022-11-20T00:30:21;5.75;;;3.45;;
44850;SDS011;30583;48.714;9.386;2022-11-20T00:32:47;6.68;;;3.88;;
44850;SDS011;30583;48.714;9.386;2022-11-20T00:35:12;8.13;;;4.43;;
44850;SDS011;30583;48.714;9.386;2022-11-20T00:37:38;5.15;;;3.80;;
44850;SDS011;30583;48.714;9.386;2022-11-20T00:40:04;6.07;;;4.00;;
44850;SDS011;30583;48.714;9.386;2022-11-20T00:42:30;8.20;;;4.32;;
44850;SDS011;30583;48.714;9.386;2022-11-20T00:44:57;9.15;;;5.72;;
44850;SDS011;30583;48.714;9.386;2022-11-20T00:47:23;7.65;;;4.30;;
44850;SDS011;30583;48.714;9.386;2022-11-20T00:49:48;10.77;;;5.82;;
44850;SDS011;30583;48.714;9.386;2022-11-20T00:52:14;10.38;;;5.63;;
44850;SDS011;30583;48.714;9.386;2022-11-20T00:54:39;8.88;;;5.05;;
44850;SDS011;30583;48.714;9.386;2022-11-20T00:57:05;7.82;;;4.90;;
44850;SDS011;30583;48.714;9.386;2022-11-20T00:59:30;8.43;;;4.90;;
44850;SDS011;30583;48.714;9.386;2022-11-20T01:01:56;6.18;;;4.28;;
44850;SDS011;30583;48.714;9.386;2022-11-20T01:04:21;7.75;;;4.75;;
44850;SDS011;30583;48.714;9.386;2022-11-20T01:06:47;6.30;;;3.95;;
44850;SDS011;30583;48.714;9.386;2022-11-20T01:09:13;6.85;;;4.28;;
44850;SDS011;30583;48.714;9.386;2022-11-20T01:11:41;7.05;;;4.25;;
44850;SDS011;30583;48.714;9.386;2022-11-20T01:14:09;7.85;;;4.15;;
44850;SDS011;30583;48.714;9.386;2022-11-20T01:16:48;6.90;;;4.07;;
44850;SDS011;30583;48.714;9.386;2022-11-20T01:19:16;6.70;;;3.70;;
44850;SDS011;30583;48.714;9.386;2022-11-20T01:21:43;6.95;;;3.83;;
44850;SDS011;30583;48.714;9.386;2022-11-20T01:24:11;4.75;;;3.60;;
44850;SDS011;30583;48.714;9.386;2022-11-20T01:26:38;4.95;;;2.90;;
44850;SDS011;30583;48.714;9.386;2022-11-20T01:29:05;5.10;;;2.90;;
44850;SDS011;30583;48.714;9.386;2022-11-20T01:31:33;5.03;;;2.95;;
44850;SDS011;30583;48.714;9.386;2022-11-20T01:34:01;6.10;;;3.30;;
44850;SDS011;30583;48.714;9.386;2022-11-20T01:36:37;6.00;;;2.90;;
44850;SDS011;30583;48.714;9.386;2022-11-20T01:39:05;6.13;;;3.10;;
44850;SDS011;30583;48.714;9.386;2022-11-20T01:41:32;7.00;;;3.28;;
44850;SDS011;30583;48.714;9.386;2022-11-20T01:44:19;3.92;;;2.80;;
44850;SDS011;30583;48.714;9.386;2022-11-20T01:46:57;4.38;;;2.70;;
44850;SDS011;30583;48.714;9.386;2022-11-20T01:49:31;5.28;;;3.47;;
44850;SDS011;30583;48.714;9.386;2022-11-20T01:52:14;3.85;;;2.80;;
44850;SDS011;30583;48.714;9.386;2022-11-20T01:55:06;4.85;;;2.92;;
44850;SDS011;30583;48.714;9.386;2022-11-20T01:57:34;4.50;;;3.00;;
44850;SDS011;30583;48.714;9.386;2022-11-20T02:00:10;4.68;;;2.85;;
44850;SDS011;30583;48.714;9.386;2022-11-20T02:02:39;8.05;;;3.08;;
44850;SDS011;30583;48.714;9.386;2022-11-20T02:07:42;6.05;;;2.80;;
44850;SDS011;30583;48.714;9.386;2022-11-20T02:10:08;4.45;;;2.72;;
44850;SDS011;30583;48.714;9.386;2022-11-20T02:12:34;4.57;;;2.83;;
44850;SDS011;30583;48.714;9.386;2022-11-20T02:15:18;4.90;;;3.17;;
44850;SDS011;30583;48.714;9.386;2022-11-20T02:17:44;5.07;;;3.00;;
44850;SDS011;30583;48.714;9.386;2022-11-20T02:20:09;6.65;;;3.55;;
44850;SDS011;30583;48.714;9.386;2022-11-20T02:22:38;5.38;;;3.17;;
44850;SDS011;30583;48.714;9.386;2022-11-20T02:25:25;4.85;;;3.17;;
44850;SDS011;30583;48.714;9.386;2022-11-20T02:27:52;5.35;;;2.88;;
44850;SDS011;30583;48.714;9.386;2022-11-20T02:30:18;5.25;;;3.00;;
44850;SDS011;30583;48.714;9.386;2022-11-20T02:32:44;6.43;;;3.45;;
44850;SDS011;30583;48.714;9.386;2022-11-20T02:35:38;4.85;;;3.10;;
44850;SDS011;30583;48.714;9.386;2022-11-20T02:37:58;7.55;;;3.63;;
44850;SDS011;30583;48.714;9.386;2022-11-20T02:40:25;7.13;;;3.67;;
44850;SDS011;30583;48.714;9.386;2022-11-20T02:42:51;6.38;;;3.47;;
44850;SDS011;30583;48.714;9.386;2022-11-20T02:45:17;5.75;;;3.40;;
44850;SDS011;30583;48.714;9.386;2022-11-20T02:47:43;5.63;;;3.78;;
44850;SDS011;30583;48.714;9.386;2022-11-20T02:50:09;5.22;;;3.42;;
44850;SDS011;30583;48.714;9.386;2022-11-20T02:52:34;6.93;;;3.80;;
44850;SDS011;30583;48.714;9.386;2022-11-20T02:55:00;6.63;;;4.00;;
44850;SDS011;30583;48.714;9.386;2022-11-20T02:57:26;6.00;;;3.50;;
44850;SDS011;30583;48.714;9.386;2022-11-20T02:59:51;4.65;;;3.60;;
44850;SDS011;30583;48.714;9.386;2022-11-20T03:02:17;6.50;;;3.85;;
44850;SDS011;30583;48.714;9.386;2022-11-20T03:04:42;4.70;;;3.35;;
44850;SDS011;30583;48.714;9.386;2022-11-20T03:07:08;4.10;;;2.83;;
44850;SDS011;30583;48.714;9.386;2022-11-20T03:09:34;5.70;;;3.30;;
44850;SDS011;30583;48.714;9.386;2022-11-20T03:12:00;4.63;;;3.22;;
44850;SDS011;30583;48.714;9.386;2022-11-20T03:14:25;6.50;;;3.22;;
44850;SDS011;30583;48.714;9.386;2022-11-20T03:16:51;4.85;;;3.35;;
44850;SDS011;30583;48.714;9.386;2022-11-20T03:19:17;5.78;;;3.10;;
44850;SDS011;30583;48.714;9.386;2022-11-20T03:21:42;5.38;;;2.90;;
44850;SDS011;30583;48.714;9.386;2022-11-20T03:24:08;6.22;;;3.20;;
44850;SDS011;30583;48.714;9.386;2022-11-20T03:26:34;4.75;;;2.83;;
44850;SDS011;30583;48.714;9.386;2022-11-20T03:29:00;5.22;;;3.30;;
44850;SDS011;30583;48.714;9.386;2022-11-20T03:31:29;5.40;;;3.17;;
44850;SDS011;30583;48.714;9.386;2022-11-20T03:33:57;5.25;;;3.60;;
44850;SDS011;30583;48.714;9.386;2022-11-20T03:36:23;5.40;;;3.53;;
44850;SDS011;30583;48.714;9.386;2022-11-20T03:38:50;4.38;;;3.10;;
44850;SDS011;30583;48.714;9.386;2022-11-20T03:41:19;7.00;;;3.55;;
44850;SDS011;30583;48.714;9.386;2022-11-20T03:43:50;4.82;;;3.00;;
44850;SDS011;30583;48.714;9.386;2022-11-20T03:46:16;6.50;;;3.25;;
44850;SDS011;30583;48.714;9.386;2022-11-20T03:48:42;6.35;;;3.33;;
44850;SDS011;30583;48.714;9.386;2022-11-20T03:51:09;4.82;;;3.08;;
44850;SDS011;30583;48.714;9.386;2022-11-20T03:53:54;5.20;;;3.08;;
44850;SDS011;30583;48.714;9.386;2022-11-20T03:56:23;4.75;;;3.10;;
44850;SDS011;30583;48.714;9.386;2022-11-20T03:58:50;4.90;;;3.05;;
44850;SDS011;30583;48.714;9.386;2022-11-20T04:01:17;7.50;;;4.10;;
44850;SDS011;30583;48.714;9.386;2022-11-20T04:03:44;5.43;;;3.13;;
44850;SDS011;30583;48.714;9.386;2022-11-20T04:08:38;7.43;;;3.97;;
44850;SDS011;30583;48.714;9.386;2022-11-20T04:13:40;5.70;;;2.80;;
44850;SDS011;30583;48.714;9.386;2022-11-20T04:16:06;5.43;;;3.33;;
44850;SDS011;30583;48.714;9.386;2022-11-20T04:18:33;4.20;;;2.53;;
44850;SDS011;30583;48.714;9.386;2022-11-20T04:20:59;3.70;;;2.63;;
44850;SDS011;30583;48.714;9.386;2022-11-20T04:23:25;4.00;;;2.95;;
44850;SDS011;30583;48.714;9.386;2022-11-20T04:25:51;6.93;;;3.95;;
44850;SDS011;30583;48.714;9.386;2022-11-20T04:28:17;6.18;;;3.10;;
44850;SDS011;30583;48.714;9.386;2022-11-20T04:30:43;5.82;;;2.80;;
44850;SDS011;30583;48.714;9.386;2022-11-20T04:33:09;6.10;;;2.90;;
44850;SDS011;30583;48.714;9.386;2022-11-20T04:35:34;4.72;;;2.50;;
44850;SDS011;30583;48.714;9.386;2022-11-20T04:38:01;7.68;;;3.10;;
44850;SDS011;30583;48.714;9.386;2022-11-20T04:40:30;7.45;;;3.03;;
44850;SDS011;30583;48.714;9.386;2022-11-20T04:42:56;4.88;;;2.92;;
44850;SDS011;30583;48.714;9.386;2022-11-20T04:45:22;5.38;;;2.80;;
44850;SDS011;30583;48.714;9.386;2022-11-20T04:47:48;4.53;;;2.88;;
44850;SDS011;30583;48.714;9.386;2022-11-20T04:50:14;3.92;;;2.75;;
44850;SDS011;30583;48.714;9.386;2022-11-20T04:52:39;4.93;;;2.50;;
44850;SDS011;30583;48.714;9.386;2022-11-20T04:55:05;4.78;;;2.90;;
44850;SDS011;30583;48.714;9.386;2022-11-20T04:57:31;13.82;;;8.48;;
44850;SDS011;30583;48.714;9.386;2022-11-20T04:59:56;17.02;;;10.30;;
44850;SDS011;30583;48.714;9.386;2022-11-20T05:02:22;5.88;;;3.95;;
44850;SDS011;30583;48.714;9.386;2022-11-20T05:04:48;14.38;;;7.53;;
44850;SDS011;30583;48.714;9.386;2022-11-20T05:07:13;13.43;;;8.00;;
44850;SDS011;30583;48.714;9.386;2022-11-20T05:09:39;6.35;;;3.30;;
44850;SDS011;30583;48.714;9.386;2022-11-20T05:12:06;3.50;;;2.50;;
44850;SDS011;30583;48.714;9.386;2022-11-20T05:14:33;6.63;;;2.53;;
44850;SDS011;30583;48.714;9.386;2022-11-20T05:16:58;4.95;;;2.30;;
44850;SDS011;30583;48.714;9.386;2022-11-20T05:19:24;4.45;;;2.40;;
44850;SDS011;30583;48.714;9.386;2022-11-20T05:21:50;6.05;;;3.60;;
44850;SDS011;30583;48.714;9.386;2022-11-20T05:24:15;4.85;;;3.05;;
44850;SDS011;30583;48.714;9.386;2022-11-20T05:26:41;3.70;;;2.38;;
44850;SDS011;30583;48.714;9.386;2022-11-20T05:29:06;3.95;;;2.50;;
44850;SDS011;30583;48.714;9.386;2022-11-20T05:31:34;4.53;;;2.50;;
44850;SDS011;30583;48.714;9.386;2022-11-20T05:34:01;4.63;;;2.75;;
44850;SDS011;30583;48.714;9.386;2022-11-20T05:36:26;3.38;;;2.22;;
44850;SDS011;30583;48.714;9.386;2022-11-20T05:38:52;4.10;;;2.35;;
44850;SDS011;30583;48.714;9.386;2022-11-20T05:41:18;3.15;;;2.22;;
44850;SDS011;30583;48.714;9.386;2022-11-20T05:43:45;3.10;;;2.20;;
44850;SDS011;30583;48.714;9.386;2022-11-20T05:46:13;7.18;;;2.58;;
44850;SDS011;30583;48.714;9.386;2022-11-20T05:48:40;4.70;;;2.10;;
44850;SDS011;30583;48.714;9.386;2022-11-20T05:51:09;3.92;;;2.50;;
44850;SDS011;30583;48.714;9.386;2022-11-20T05:53:36;4.55;;;2.67;;
44850;SDS011;30583;48.714;9.386;2022-11-20T05:56:03;5.93;;;2.53;;
44850;SDS011;30583;48.714;9.386;2022-11-20T05:58:31;4.07;;;2.22;;
44850;SDS011;30583;48.714;9.386;2022-11-20T06:01:30;4.22;;;2.28;;
44850;SDS011;30583;48.714;9.386;2022-11-20T06:03:50;5.43;;;2.30;;
44850;SDS011;30583;48.714;9.386;2022-11-20T06:06:17;5.07;;;2.83;;
44850;SDS011;30583;48.714;9.386;2022-11-20T06:08:43;2.78;;;2.10;;
44850;SDS011;30583;48.714;9.386;2022-11-20T06:11:10;4.75;;;2.45;;
44850;SDS011;30583;48.714;9.386;2022-11-20T06:13:37;5.93;;;2.78;;
44850;SDS011;30583;48.714;9.386;2022-11-20T06:16:03;4.05;;;2.30;;
44850;SDS011;30583;48.714;9.386;2022-11-20T06:18:29;3.10;;;2.10;;
44850;SDS011;30583;48.714;9.386;2022-11-20T06:21:02;4.18;;;2.15;;
44850;SDS011;30583;48.714;9.386;2022-11-20T06:25:56;3.30;;;2.30;;
44850;SDS011;30583;48.714;9.386;2022-11-20T06:28:23;2.92;;;1.98;;
44850;SDS011;30583;48.714;9.386;2022-11-20T06:30:48;3.65;;;2.22;;
44850;SDS011;30583;48.714;9.386;2022-11-20T06:33:14;4.25;;;2.15;;
44850;SDS011;30583;48.714;9.386;2022-11-20T06:35:39;4.50;;;1.80;;
44850;SDS011;30583;48.714;9.386;2022-11-20T06:38:05;4.82;;;2.00;;
44850;SDS011;30583;48.714;9.386;2022-11-20T06:40:30;3.53;;;2.30;;
44850;SDS011;30583;48.714;9.386;2022-11-20T06:42:56;4.63;;;2.25;;
44850;SDS011;30583;48.714;9.386;2022-11-20T06:45:21;3.53;;;2.35;;
44850;SDS011;30583;48.714;9.386;2022-11-20T06:47:47;3.72;;;2.38;;
44850;SDS011;30583;48.714;9.386;2022-11-20T06:50:13;3.13;;;2.00;;
44850;SDS011;30583;48.714;9.386;2022-11-20T06:52:38;5.18;;;2.30;;
44850;SDS011;30583;48.714;9.386;2022-11-20T06:55:04;4.80;;;2.10;;
44850;SDS011;30583;48.714;9.386;2022-11-20T06:57:30;3.58;;;2.05;;
44850;SDS011;30583;48.714;9.386;2022-11-20T06:59:55;3.65;;;2.28;;
44850;SDS011;30583;48.714;9.386;2022-11-20T07:02:21;4.35;;;2.40;;
44850;SDS011;30583;48.714;9.386;2022-11-20T07:04:46;4.65;;;2.42;;
44850;SDS011;30583;48.714;9.386;2022-11-20T07:07:12;4.80;;;2.47;;
44850;SDS011;30583;48.714;9.386;2022-11-20T07:09:37;4.47;;;1.92;;
44850;SDS011;30583;48.714;9.386;2022-11-20T07:12:03;5.97;;;2.47;;
44850;SDS011;30583;48.714;9.386;2022-11-20T07:14:28;4.45;;;2.20;;
44850;SDS011;30583;48.714;9.386;2022-11-20T07:16:54;4.75;;;2.67;;
44850;SDS011;30583;48.714;9.386;2022-11-20T07:19:20;3.55;;;2.20;;
44850;SDS011;30583;48.714;9.386;2022-11-20T07:21:45;3.30;;;2.20;;
44850;SDS011;30583;48.714;9.386;2022-11-20T07:24:11;4.30;;;2.30;;
44850;SDS011;30583;48.714;9.386;2022-11-20T07:26:37;11.88;;;6.22;;
44850;SDS011;30583;48.714;9.386;2022-11-20T07:29:02;35.70;;;14.45;;
44850;SDS011;30583;48.714;9.386;2022-11-20T07:31:28;37.45;;;15.20;;
44850;SDS011;30583;48.714;9.386;2022-11-20T07:33:54;51.40;;;24.25;;
44850;SDS011;30583;48.714;9.386;2022-11-20T07:36:19;20.48;;;9.48;;
44850;SDS011;30583;48.714;9.386;2022-11-20T07:38:45;27.63;;;15.10;;
44850;SDS011;30583;48.714;9.386;2022-11-20T07:41:10;338.77;;;154.93;;
44850;SDS011;30583;48.714;9.386;2022-11-20T07:43:36;129.10;;;59.80;;
44850;SDS011;30583;48.714;9.386;2022-11-20T07:46:01;66.32;;;25.00;;
44850;SDS011;30583;48.714;9.386;2022-11-20T07:48:28;106.35;;;40.45;;
44850;SDS011;30583;48.714;9.386;2022-11-20T07:50:54;67.20;;;27.42;;
44850;SDS011;30583;48.714;9.386;2022-11-20T07:53:21;433.98;;;169.93;;
44850;SDS011;30583;48.714;9.386;2022-11-20T07:55:47;310.65;;;119.78;;
44850;SDS011;30583;48.714;9.386;2022-11-20T07:58:13;221.52;;;84.10;;
44850;SDS011;30583;48.714;9.386;2022-11-20T08:00:41;79.47;;;32.70;;
44850;SDS011;30583;48.714;9.386;2022-11-20T08:03:07;209.70;;;102.25;;
44850;SDS011;30583;48.714;9.386;2022-11-20T08:05:32;145.75;;;83.03;;
44850;SDS011;30583;48.714;9.386;2022-11-20T08:07:58;93.03;;;56.58;;
44850;SDS011;30583;48.714;9.386;2022-11-20T08:10:24;265.00;;;93.07;;
44850;SDS011;30583;48.714;9.386;2022-11-20T08:12:50;124.95;;;53.58;;
44850;SDS011;30583;48.714;9.386;2022-11-20T08:15:36;55.50;;;25.70;;
44850;SDS011;30583;48.714;9.386;2022-11-20T08:18:06;60.45;;;30.48;;
44850;SDS011;30583;48.714;9.386;2022-11-20T08:20:34;52.17;;;23.15;;
44850;SDS011;30583;48.714;9.386;2022-11-20T08:23:01;5.72;;;3.10;;
44850;SDS011;30583;48.714;9.386;2022-11-20T08:25:28;31.55;;;14.32;;
44850;SDS011;30583;48.714;9.386;2022-11-20T08:27:56;47.95;;;24.13;;
44850;SDS011;30583;48.714;9.386;2022-11-20T08:30:26;79.65;;;37.58;;
44850;SDS011;30583;48.714;9.386;2022-11-20T08:32:52;5.50;;;3.65;;
44850;SDS011;30583;48.714;9.386;2022-11-20T08:35:19;4.80;;;2.90;;
44850;SDS011;30583;48.714;9.386;2022-11-20T08:37:48;11.95;;;5.05;;
44850;SDS011;30583;48.714;9.386;2022-11-20T08:40:14;5.90;;;2.75;;
44850;SDS011;30583;48.714;9.386;2022-11-20T08:42:47;5.10;;;2.97;;
44850;SDS011;30583;48.714;9.386;2022-11-20T08:45:14;19.23;;;12.25;;
44850;SDS011;30583;48.714;9.386;2022-11-20T08:47:40;5.57;;;3.47;;
44850;SDS011;30583;48.714;9.386;2022-11-20T08:50:07;11.07;;;4.57;;
44850;SDS011;30583;48.714;9.386;2022-11-20T08:52:34;353.10;;;143.27;;
44850;SDS011;30583;48.714;9.386;2022-11-20T08:54:59;188.23;;;80.05;;
44850;SDS011;30583;48.714;9.386;2022-11-20T08:57:25;51.80;;;22.42;;
44850;SDS011;30583;48.714;9.386;2022-11-20T08:59:50;32.00;;;14.63;;
44850;SDS011;30583;48.714;9.386;2022-11-20T09:02:16;25.73;;;12.10;;
44850;SDS011;30583;48.714;9.386;2022-11-20T09:04:41;50.65;;;20.67;;
44850;SDS011;30583;48.714;9.386;2022-11-20T09:07:07;12.85;;;5.82;;
44850;SDS011;30583;48.714;9.386;2022-11-20T09:09:32;33.03;;;16.67;;
44850;SDS011;30583;48.714;9.386;2022-11-20T09:11:58;10.60;;;6.45;;
44850;SDS011;30583;48.714;9.386;2022-11-20T09:14:24;4.90;;;3.00;;
44850;SDS011;30583;48.714;9.386;2022-11-20T09:16:56;2.45;;;1.27;;
44850;SDS011;30583;48.714;9.386;2022-11-20T09:19:23;3.03;;;2.15;;
44850;SDS011;30583;48.714;9.386;2022-11-20T09:21:49;4.32;;;2.70;;
44850;SDS011;30583;48.714;9.386;2022-11-20T09:24:15;3.47;;;2.17;;
44850;SDS011;30583;48.714;9.386;2022-11-20T09:26:41;5.57;;;2.70;;
44850;SDS011;30583;48.714;9.386;2022-11-20T09:29:06;4.45;;;3.33;;
44850;SDS011;30583;48.714;9.386;2022-11-20T09:31:32;3.92;;;2.33;;
44850;SDS011;30583;48.714;9.386;2022-11-20T09:33:58;3.65;;;2.03;;
44850;SDS011;30583;48.714;9.386;2022-11-20T09:36:23;3.75;;;2.60;;
44850;SDS011;30583;48.714;9.386;2022-11-20T09:38:49;6.65;;;3.53;;
44850;SDS011;30583;48.714;9.386;2022-11-20T09:41:36;4.07;;;2.30;;
44850;SDS011;30583;48.714;9.386;2022-11-20T09:44:25;5.57;;;3.42;;
44850;SDS011;30583;48.714;9.386;2022-11-20T09:47:33;5.25;;;3.00;;
44850;SDS011;30583;48.714;9.386;2022-11-20T09:50:05;6.03;;;3.65;;
44850;SDS011;30583;48.714;9.386;2022-11-20T09:56:11;3.08;;;1.88;;
44850;SDS011;30583;48.714;9.386;2022-11-20T09:58:41;3.75;;;2.15;;
44850;SDS011;30583;48.714;9.386;2022-11-20T10:01:14;4.57;;;2.58;;
44850;SDS011;30583;48.714;9.386;2022-11-20T10:06:29;4.47;;;3.00;;
44850;SDS011;30583;48.714;9.386;2022-11-20T10:09:13;4.70;;;2.88;;
44850;SDS011;30583;48.714;9.386;2022-11-20T10:14:26;3.75;;;1.30;;
44850;SDS011;30583;48.714;9.386;2022-11-20T10:25:10;3.15;;;1.58;;
44850;SDS011;30583;48.714;9.386;2022-11-20T10:30:11;3.25;;;2.22;;
44850;SDS011;30583;48.714;9.386;2022-11-20T10:32:48;1.88;;;1.23;;
44850;SDS011;30583;48.714;9.386;2022-11-20T10:35:43;1.50;;;1.20;;
44850;SDS011;30583;48.714;9.386;2022-11-20T10:38:18;2.85;;;1.48;;
44850;SDS011;30583;48.714;9.386;2022-11-20T10:40:57;4.13;;;2.20;;
44850;SDS011;30583;48.714;9.386;2022-11-20T10:43:45;9.15;;;3.67;;
44850;SDS011;30583;48.714;9.386;2022-11-20T10:46:14;3.67;;;1.80;;
44850;SDS011;30583;48.714;9.386;2022-11-20T10:48:43;8.32;;;3.83;;
44850;SDS011;30583;48.714;9.386;2022-11-20T10:56:57;2.42;;;1.38;;
44850;SDS011;30583;48.714;9.386;2022-11-20T11:02:16;3.58;;;1.77;;
44850;SDS011;30583;48.714;9.386;2022-11-20T11:04:50;3.97;;;2.25;;
44850;SDS011;30583;48.714;9.386;2022-11-20T11:07:19;5.07;;;3.28;;
44850;SDS011;30583;48.714;9.386;2022-11-20T11:09:48;2.17;;;1.40;;
44850;SDS011;30583;48.714;9.386;2022-11-20T11:12:16;2.30;;;1.65;;
44850;SDS011;30583;48.714;9.386;2022-11-20T11:14:43;3.25;;;2.10;;
44850;SDS011;30583;48.714;9.386;2022-11-20T11:17:46;3.10;;;1.70;;
44850;SDS011;30583;48.714;9.386;2022-11-20T11:22:45;3.07;;;1.30;;
44850;SDS011;30583;48.714;9.386;2022-11-20T11:27:53;2.92;;;1.10;;
44850;SDS011;30583;48.714;9.386;2022-11-20T11:30:21;2.95;;;1.60;;
44850;SDS011;30583;48.714;9.386;2022-11-20T11:32:48;2.50;;;1.50;;
44850;SDS011;30583;48.714;9.386;2022-11-20T11:35:24;1.85;;;1.10;;
44850;SDS011;30583;48.714;9.386;2022-11-20T11:37:50;2.17;;;1.20;;
44850;SDS011;30583;48.714;9.386;2022-11-20T11:40:19;3.53;;;2.00;;
44850;SDS011;30583;48.714;9.386;2022-11-20T11:42:48;2.90;;;1.77;;
44850;SDS011;30583;48.714;9.386;2022-11-20T11:45:18;3.10;;;1.90;;
44850;SDS011;30583;48.714;9.386;2022-11-20T11:47:45;3.58;;;1.85;;
44850;SDS011;30583;48.714;9.386;2022-11-20T11:50:20;4.28;;;1.95;;
44850;SDS011;30583;48.714;9.386;2022-11-20T11:52:53;6.88;;;3.67;;
44850;SDS011;30583;48.714;9.386;2022-11-20T12:00:50;4.15;;;2.22;;
44850;SDS011;30583;48.714;9.386;2022-11-20T12:03:42;3.80;;;1.60;;
44850;SDS011;30583;48.714;9.386;2022-11-20T12:06:14;6.18;;;2.00;;
44850;SDS011;30583;48.714;9.386;2022-11-20T12:08:43;5.25;;;3.22;;
44850;SDS011;30583;48.714;9.386;2022-11-20T12:11:18;3.63;;;1.85;;
44850;SDS011;30583;48.714;9.386;2022-11-20T12:16:41;4.15;;;1.77;;
44850;SDS011;30583;48.714;9.386;2022-11-20T12:19:08;4.15;;;1.67;;
44850;SDS011;30583;48.714;9.386;2022-11-20T12:30:19;8.30;;;4.43;;
44850;SDS011;30583;48.714;9.386;2022-11-20T12:32:52;5.13;;;3.20;;
44850;SDS011;30583;48.714;9.386;2022-11-20T12:45:18;4.05;;;2.33;;
44850;SDS011;30583;48.714;9.386;2022-11-20T12:50:16;6.30;;;2.53;;
44850;SDS011;30583;48.714;9.386;2022-11-20T12:53:15;6.18;;;2.90;;
44850;SDS011;30583;48.714;9.386;2022-11-20T12:55:56;6.05;;;2.67;;
44850;SDS011;30583;48.714;9.386;2022-11-20T13:07:04;5.22;;;1.67;;
44850;SDS011;30583;48.714;9.386;2022-11-20T13:09:32;4.60;;;2.20;;
44850;SDS011;30583;48.714;9.386;2022-11-20T13:12:08;3.97;;;2.00;;
44850;SDS011;30583;48.714;9.386;2022-11-20T13:19:51;4.45;;;1.80;;
44850;SDS011;30583;48.714;9.386;2022-11-20T13:22:28;3.92;;;1.35;;
44850;SDS011;30583;48.714;9.386;2022-11-20T13:25:09;4.60;;;1.38;;
44850;SDS011;30583;48.714;9.386;2022-11-20T13:27:35;3.10;;;1.60;;
44850;SDS011;30583;48.714;9.386;2022-11-20T13:30:12;4.53;;;2.20;;
44850;SDS011;30583;48.714;9.386;2022-11-20T13:35:24;3.83;;;1.70;;
44850;SDS011;30583;48.714;9.386;2022-11-20T13:43:49;4.28;;;1.75;;
44850;SDS011;30583;48.714;9.386;2022-11-20T13:46:14;3.33;;;1.20;;
44850;SDS011;30583;48.714;9.386;2022-11-20T13:48:41;3.58;;;1.40;;
44850;SDS011;30583;48.714;9.386;2022-11-20T13:51:20;3.25;;;1.70;;
44850;SDS011;30583;48.714;9.386;2022-11-20T14:04:48;10.95;;;6.53;;
44850;SDS011;30583;48.714;9.386;2022-11-20T14:07:21;5.88;;;2.95;;
44850;SDS011;30583;48.714;9.386;2022-11-20T14:09:51;3.22;;;1.42;;
44850;SDS011;30583;48.714;9.386;2022-11-20T14:12:21;3.80;;;1.90;;
44850;SDS011;30583;48.714;9.386;2022-11-20T14:14:50;6.60;;;2.60;;
44850;SDS011;30583;48.714;9.386;2022-11-20T14:17:24;5.68;;;2.90;;
44850;SDS011;30583;48.714;9.386;2022-11-20T14:20:00;9.52;;;3.83;;
44850;SDS011;30583;48.714;9.386;2022-11-20T14:22:28;7.93;;;2.38;;
44850;SDS011;30583;48.714;9.386;2022-11-20T14:25:18;4.93;;;2.70;;
44850;SDS011;30583;48.714;9.386;2022-11-20T14:27:52;5.15;;;2.33;;
44850;SDS011;30583;48.714;9.386;2022-11-20T14:30:19;5.40;;;2.20;;
44850;SDS011;30583;48.714;9.386;2022-11-20T14:32:46;2.85;;;1.90;;
44850;SDS011;30583;48.714;9.386;2022-11-20T14:35:14;4.50;;;2.38;;
44850;SDS011;30583;48.714;9.386;2022-11-20T14:37:52;5.05;;;2.20;;
44850;SDS011;30583;48.714;9.386;2022-11-20T14:40:26;5.72;;;1.95;;
44850;SDS011;30583;48.714;9.386;2022-11-20T14:42:54;3.13;;;1.80;;
44850;SDS011;30583;48.714;9.386;2022-11-20T14:45:21;5.93;;;2.33;;
44850;SDS011;30583;48.714;9.386;2022-11-20T14:47:47;4.00;;;1.92;;
44850;SDS011;30583;48.714;9.386;2022-11-20T14:50:16;4.28;;;2.08;;
44850;SDS011;30583;48.714;9.386;2022-11-20T14:52:52;4.03;;;2.20;;
44850;SDS011;30583;48.714;9.386;2022-11-20T14:55:44;5.32;;;1.73;;
44850;SDS011;30583;48.714;9.386;2022-11-20T14:58:22;4.32;;;1.80;;
44850;SDS011;30583;48.714;9.386;2022-11-20T15:00:58;3.45;;;1.90;;
44850;SDS011;30583;48.714;9.386;2022-11-20T15:03:32;5.25;;;2.28;;
44850;SDS011;30583;48.714;9.386;2022-11-20T15:05:58;3.70;;;2.20;;
44850;SDS011;30583;48.714;9.386;2022-11-20T15:08:24;4.85;;;2.75;;
44850;SDS011;30583;48.714;9.386;2022-11-20T15:10:50;8.10;;;4.57;;
44850;SDS011;30583;48.714;9.386;2022-11-20T15:13:24;4.93;;;3.38;;
44850;SDS011;30583;48.714;9.386;2022-11-20T15:15:53;4.60;;;1.98;;
44850;SDS011;30583;48.714;9.386;2022-11-20T15:18:23;3.88;;;1.50;;
44850;SDS011;30583;48.714;9.386;2022-11-20T15:20:57;4.53;;;1.60;;
44850;SDS011;30583;48.714;9.386;2022-11-20T15:23:26;1.42;;;1.13;;
44850;SDS011;30583;48.714;9.386;2022-11-20T15:25:53;12.48;;;6.85;;
44850;SDS011;30583;48.714;9.386;2022-11-20T15:30:54;4.40;;;1.50;;
44850;SDS011;30583;48.714;9.386;2022-11-20T15:33:20;2.33;;;1.40;;
44850;SDS011;30583;48.714;9.386;2022-11-20T15:35:46;2.10;;;1.10;;
44850;SDS011;30583;48.714;9.386;2022-11-20T15:38:12;3.75;;;1.50;;
44850;SDS011;30583;48.714;9.386;2022-11-20T15:40:38;3.10;;;1.23;;
44850;SDS011;30583;48.714;9.386;2022-11-20T15:43:04;3.10;;;1.77;;
44850;SDS011;30583;48.714;9.386;2022-11-20T15:45:34;4.20;;;1.92;;
44850;SDS011;30583;48.714;9.386;2022-11-20T15:48:11;7.07;;;3.85;;
44850;SDS011;30583;48.714;9.386;2022-11-20T15:51:01;6.43;;;3.97;;
44850;SDS011;30583;48.714;9.386;2022-11-20T15:53:37;3.97;;;2.03;;
44850;SDS011;30583;48.714;9.386;2022-11-20T15:56:03;4.95;;;2.33;;
44850;SDS011;30583;48.714;9.386;2022-11-20T15:58:29;6.22;;;3.30;;
44850;SDS011;30583;48.714;9.386;2022-11-20T16:00:55;8.13;;;4.68;;
44850;SDS011;30583;48.714;9.386;2022-11-20T16:03:21;11.55;;;6.90;;
44850;SDS011;30583;48.714;9.386;2022-11-20T16:05:47;7.82;;;4.68;;
44850;SDS011;30583;48.714;9.386;2022-11-20T16:08:12;10.60;;;6.05;;
44850;SDS011;30583;48.714;9.386;2022-11-20T16:10:38;14.45;;;6.50;;
44850;SDS011;30583;48.714;9.386;2022-11-20T16:13:05;10.45;;;6.30;;
44850;SDS011;30583;48.714;9.386;2022-11-20T16:15:57;16.58;;;7.63;;
44850;SDS011;30583;48.714;9.386;2022-11-20T16:18:24;15.20;;;9.02;;
44850;SDS011;30583;48.714;9.386;2022-11-20T16:20:51;15.63;;;9.05;;
44850;SDS011;30583;48.714;9.386;2022-11-20T16:23:17;19.00;;;11.77;;
44850;SDS011;30583;48.714;9.386;2022-11-20T16:25:43;17.88;;;10.68;;
44850;SDS011;30583;48.714;9.386;2022-11-20T16:28:10;18.65;;;9.70;;
44850;SDS011;30583;48.714;9.386;2022-11-20T16:30:36;18.13;;;10.52;;
44850;SDS011;30583;48.714;9.386;2022-11-20T16:33:02;18.10;;;9.68;;
44850;SDS011;30583;48.714;9.386;2022-11-20T16:35:31;15.23;;;9.32;;
44850;SDS011;30583;48.714;9.386;2022-11-20T16:37:57;29.65;;;18.98;;
44850;SDS011;30583;48.714;9.386;2022-11-20T16:40:23;74.43;;;44.72;;
44850;SDS011;30583;48.714;9.386;2022-11-20T16:42:50;44.72;;;26.90;;